Time;durP1;ratioP1;P1;durP2;ratioP2;P2;SDS_P1;SDS_P2;PMS_P1;PMS_P2;Temp;Humidity;BMP_temperature;BMP_pressure;BME280_temperature;BME280_humidity;BME280_pressure;Samples;Min_cycle;Max_cycle;Signal;HPM_P1;HPM_P2
2022/08/29 00:00:28;;;;;;;15.10;4.95;;;;;;;;;;10109948;28;20043;-67
2022/08/29 00:05:27;;;;;;;12.45;4.82;;;;;;;;;;10102739;28;20078;-67
2022/08/29 00:10:25;;;;;;;14.32;4.82;;;;;;;;;;10106018;28;20640;-68
2022/08/29 00:15:21;;;;;;;15.40;5.07;;;;;;;;;;10109272;28;20046;-67
2022/08/29 00:20:20;;;;;;;15.23;4.82;;;;;;;;;;10104727;28;20054;-67
2022/08/29 00:25:25;;;;;;;14.10;4.55;;;;;;;;;;10104268;28;20061;-67
2022/08/29 00:30:23;;;;;;;16.60;4.90;;;;;;;;;;10098037;28;20108;-67
2022/08/29 00:35:24;;;;;;;15.57;4.82;;;;;;;;;;10106685;28;20465;-68
2022/08/29 00:40:25;;;;;;;19.40;5.65;;;;;;;;;;10099884;28;20501;-67
2022/08/29 00:45:22;;;;;;;14.25;4.70;;;;;;;;;;10105440;28;20055;-68
2022/08/29 00:50:23;;;;;;;14.52;4.97;;;;;;;;;;10103824;28;20086;-69
2022/08/29 00:55:21;;;;;;;17.83;5.90;;;;;;;;;;10105232;28;20130;-69
2022/08/29 01:00:18;;;;;;;14.18;4.88;;;;;;;;;;10097600;28;20504;-69
2022/08/29 01:05:16;;;;;;;15.93;5.38;;;;;;;;;;11109196;23;20141;-69
2022/08/29 01:12:14;;;;;;;20.08;5.63;;;;;;;;;;10125470;28;20046;-67
2022/08/29 01:15:31;;;;;;;20.98;6.07;;;;;;;;;;10127831;28;20070;-67
2022/08/29 01:20:34;;;;;;;20.27;5.57;;;;;;;;;;10106072;28;20150;-67
2022/08/29 01:25:30;;;;;;;;;;;;;;;;;;10095233;28;20046;-67
2022/08/29 01:30:26;;;;;;;21.48;6.32;;;;;;;;;;10103009;28;20402;-68
2022/08/29 01:35:24;;;;;;;15.02;6.63;;;;;;;;;;10062802;28;20476;-67
2022/08/29 01:40:26;;;;;;;25.27;6.72;;;;;;;;;;10095388;28;20071;-67
2022/08/29 01:45:22;;;;;;;13.63;5.35;;;;;;;;;;10101609;28;20069;-68
2022/08/29 01:50:18;;;;;;;20.70;6.40;;;;;;;;;;10095356;28;20054;-68
2022/08/29 01:55:15;;;;;;;17.63;6.88;;;;;;;;;;10103531;28;20082;-68
2022/08/29 02:00:11;;;;;;;30.60;8.00;;;;;;;;;;10107443;28;20046;-68
2022/08/29 02:05:08;;;;;;;20.95;6.55;;;;;;;;;;10105881;28;20051;-68
2022/08/29 02:10:05;;;;;;;17.35;6.75;;;;;;;;;;10102737;28;20609;-68
2022/08/29 02:15:02;;;;;;;19.70;6.13;;;;;;;;;;10090003;28;20058;-69
2022/08/29 02:19:59;;;;;;;13.02;5.63;;;;;;;;;;10107311;28;20137;-68
2022/08/29 02:24:55;;;;;;;17.60;5.43;;;;;;;;;;10097524;28;20145;-67
2022/08/29 02:29:51;;;;;;;12.50;4.43;;;;;;;;;;10098010;28;20122;-67
2022/08/29 02:34:48;;;;;;;10.32;4.75;;;;;;;;;;10093521;28;20536;-67
2022/08/29 02:39:45;;;;;;;16.17;5.47;;;;;;;;;;10103237;28;20097;-67
2022/08/29 02:44:41;;;;;;;20.35;5.72;;;;;;;;;;10101131;28;20752;-65
2022/08/29 02:49:38;;;;;;;16.92;5.13;;;;;;;;;;10098295;28;20499;-67
2022/08/29 02:54:34;;;;;;;14.32;5.65;;;;;;;;;;10100705;28;20081;-67
2022/08/29 02:59:31;;;;;;;17.58;6.13;;;;;;;;;;10116987;28;20551;-68
2022/08/29 03:04:27;;;;;;;17.40;5.40;;;;;;;;;;10096685;28;20063;-69
2022/08/29 03:09:23;;;;;;;18.83;6.35;;;;;;;;;;10107641;28;20051;-68
2022/08/29 03:14:20;;;;;;;19.88;6.72;;;;;;;;;;10102071;28;20472;-68
2022/08/29 03:19:17;;;;;;;16.50;5.50;;;;;;;;;;10104166;28;20491;-65
2022/08/29 03:24:13;;;;;;;18.63;7.50;;;;;;;;;;10096658;28;20137;-67
2022/08/29 03:29:10;;;;;;;19.67;7.07;;;;;;;;;;10081801;28;20060;-65
2022/08/29 03:34:06;;;;;;;16.02;5.85;;;;;;;;;;10083994;28;20050;-68
2022/08/29 03:39:03;;;;;;;14.43;6.03;;;;;;;;;;10088642;28;20065;-66
2022/08/29 03:44:02;;;;;;;12.13;6.22;;;;;;;;;;10115167;28;20039;-66
2022/08/29 03:48:58;;;;;;;14.77;5.80;;;;;;;;;;10096888;28;20050;-68
2022/08/29 03:53:55;;;;;;;17.83;7.05;;;;;;;;;;10095225;28;20093;-68
2022/08/29 03:58:51;;;;;;;14.02;5.80;;;;;;;;;;10098347;28;20117;-68
2022/08/29 04:03:49;;;;;;;15.43;7.88;;;;;;;;;;10093240;28;20159;-66
2022/08/29 04:08:46;;;;;;;17.77;6.57;;;;;;;;;;10094584;28;20126;-67
2022/08/29 04:13:43;;;;;;;15.55;7.00;;;;;;;;;;10097715;28;20761;-68
2022/08/29 04:18:39;;;;;;;15.98;7.47;;;;;;;;;;10093536;28;20130;-68
2022/08/29 04:23:37;;;;;;;13.98;6.90;;;;;;;;;;10101626;28;20102;-67
2022/08/29 04:28:33;;;;;;;14.25;6.85;;;;;;;;;;10101616;28;20121;-66
2022/08/29 04:33:31;;;;;;;11.13;7.50;;;;;;;;;;10105104;28;20050;-66
2022/08/29 04:38:27;;;;;;;15.25;8.00;;;;;;;;;;10104616;28;20149;-68
2022/08/29 04:43:24;;;;;;;25.13;9.93;;;;;;;;;;10117626;28;20132;-68
2022/08/29 04:48:20;;;;;;;20.33;9.77;;;;;;;;;;10090527;28;20142;-68
2022/08/29 04:53:16;;;;;;;14.43;9.15;;;;;;;;;;10078929;28;20055;-68
2022/08/29 04:58:13;;;;;;;18.55;8.75;;;;;;;;;;10083416;28;20106;-68
2022/08/29 05:03:10;;;;;;;14.60;7.72;;;;;;;;;;10094677;28;20098;-68
2022/08/29 05:08:06;;;;;;;13.75;8.13;;;;;;;;;;10090123;28;20075;-67
2022/08/29 05:13:03;;;;;;;13.52;6.20;;;;;;;;;;10089063;28;20086;-67
2022/08/29 05:17:59;;;;;;;11.43;5.60;;;;;;;;;;10096988;28;20583;-63
2022/08/29 05:22:56;;;;;;;7.65;4.45;;;;;;;;;;10096374;28;20081;-65
2022/08/29 05:27:52;;;;;;;8.55;4.70;;;;;;;;;;10090772;28;20039;-65
2022/08/29 05:32:50;;;;;;;10.68;5.03;;;;;;;;;;10097861;28;20054;-68
2022/08/29 05:37:47;;;;;;;8.55;4.70;;;;;;;;;;10094554;28;20042;-68
2022/08/29 05:42:43;;;;;;;6.45;4.10;;;;;;;;;;10109562;28;20073;-68
2022/08/29 05:47:39;;;;;;;7.75;4.10;;;;;;;;;;10101158;28;20142;-67
2022/08/29 05:52:36;;;;;;;6.20;4.00;;;;;;;;;;10097161;28;20157;-67
2022/08/29 05:57:32;;;;;;;4.82;3.50;;;;;;;;;;10101070;28;20145;-67
2022/08/29 06:02:28;;;;;;;6.15;3.10;;;;;;;;;;10093066;28;20110;-68
2022/08/29 06:07:25;;;;;;;5.47;3.50;;;;;;;;;;10099400;28;20051;-68
2022/08/29 06:12:22;;;;;;;9.05;4.20;;;;;;;;;;10094344;28;20098;-67
2022/08/29 06:17:19;;;;;;;6.18;3.30;;;;;;;;;;10098946;28;20043;-67
2022/08/29 06:22:18;;;;;;;7.15;3.60;;;;;;;;;;10105781;28;20478;-66
2022/08/29 06:27:14;;;;;;;5.28;2.88;;;;;;;;;;10108784;28;20042;-66
2022/08/29 06:32:11;;;;;;;6.35;3.53;;;;;;;;;;10107778;28;20127;-67
2022/08/29 06:37:08;;;;;;;6.13;3.20;;;;;;;;;;10105007;28;20756;-68
2022/08/29 06:42:04;;;;;;;6.18;3.80;;;;;;;;;;10116890;28;20314;-68
2022/08/29 06:47:01;;;;;;;8.10;4.07;;;;;;;;;;10108229;28;20082;-68
2022/08/29 06:51:58;;;;;;;5.05;3.50;;;;;;;;;;10099652;28;20051;-68
2022/08/29 06:56:55;;;;;;;5.68;3.00;;;;;;;;;;10110304;28;20085;-68
2022/08/29 07:01:53;;;;;;;4.38;2.78;;;;;;;;;;10114548;28;20568;-68
2022/08/29 07:06:49;;;;;;;5.53;3.03;;;;;;;;;;10111959;28;20173;-68
2022/08/29 07:11:46;;;;;;;5.93;2.97;;;;;;;;;;10106966;28;20624;-68
2022/08/29 07:16:42;;;;;;;4.32;2.28;;;;;;;;;;10106211;28;20078;-69
2022/08/29 07:21:39;;;;;;;4.43;2.80;;;;;;;;;;10106445;28;20078;-69
2022/08/29 07:26:40;;;;;;;3.22;1.73;;;;;;;;;;10111845;28;20066;-67
2022/08/29 07:31:37;;;;;;;3.45;1.90;;;;;;;;;;10102603;28;20133;-69
2022/08/29 07:36:34;;;;;;;5.75;2.08;;;;;;;;;;10116004;28;20050;-69
2022/08/29 07:41:30;;;;;;;2.85;1.70;;;;;;;;;;10106617;28;20130;-69
2022/08/29 07:46:27;;;;;;;3.80;2.33;;;;;;;;;;10103101;28;20166;-69
2022/08/29 07:51:25;;;;;;;6.18;3.47;;;;;;;;;;10114795;28;20101;-69
2022/08/29 07:56:26;;;;;;;3.53;2.00;;;;;;;;;;10096336;28;20081;-69
2022/08/29 08:01:23;;;;;;;6.03;2.60;;;;;;;;;;10113805;28;20050;-69
2022/08/29 08:06:21;;;;;;;5.32;2.33;;;;;;;;;;10096317;28;20162;-69
2022/08/29 08:11:19;;;;;;;3.33;2.47;;;;;;;;;;10099834;28;20456;-69
2022/08/29 08:16:17;;;;;;;5.28;2.70;;;;;;;;;;10103538;28;20565;-67
2022/08/29 08:21:14;;;;;;;4.43;2.85;;;;;;;;;;10104049;28;20054;-68
2022/08/29 08:26:11;;;;;;;7.60;2.53;;;;;;;;;;10106341;28;20567;-68
2022/08/29 08:31:08;;;;;;;4.00;2.53;;;;;;;;;;10100623;28;20516;-68
2022/08/29 08:36:12;;;;;;;3.60;2.70;;;;;;;;;;10100871;28;20141;-68
2022/08/29 08:41:20;;;;;;;3.00;2.70;;;;;;;;;;10089553;28;20465;-68
2022/08/29 08:46:37;;;;;;;3.80;3.13;;;;;;;;;;10094042;28;20047;-67
2022/08/29 08:51:34;;;;;;;5.03;3.10;;;;;;;;;;10094109;28;20050;-66
2022/08/29 08:56:34;;;;;;;3.70;3.30;;;;;;;;;;10093059;28;20523;-66
2022/08/29 09:01:41;;;;;;;4.03;3.00;;;;;;;;;;10091157;28;20062;-67
2022/08/29 09:07:03;;;;;;;5.63;4.40;;;;;;;;;;10094405;28;20524;-66
2022/08/29 09:12:05;;;;;;;5.00;4.07;;;;;;;;;;10101369;28;20046;-67
2022/08/29 09:17:02;;;;;;;;;;;;;;;;;;10100810;28;20108;-67
2022/08/29 09:22:04;;;;;;;5.15;3.95;;;;;;;;;;10109411;28;19958;-66
2022/08/29 09:27:01;;;;;;;4.90;4.30;;;;;;;;;;10097903;28;20142;-67
2022/08/29 09:32:12;;;;;;;6.03;4.07;;;;;;;;;;10099689;28;20073;-67
2022/08/29 09:37:22;;;;;;;7.07;4.40;;;;;;;;;;10111034;28;20433;-67
2022/08/29 09:42:21;;;;;;;7.50;4.35;;;;;;;;;;10110670;28;20054;-67
2022/08/29 09:47:20;;;;;;;6.00;4.90;;;;;;;;;;10098980;28;20150;-67
2022/08/29 09:52:22;;;;;;;8.35;4.70;;;;;;;;;;10102097;28;20138;-67
2022/08/29 09:57:24;;;;;;;5.65;4.97;;;;;;;;;;10099703;28;20517;-67
2022/08/29 10:02:23;;;;;;;5.22;4.80;;;;;;;;;;10105818;28;20070;-67
2022/08/29 10:07:31;;;;;;;5.95;5.18;;;;;;;;;;10100793;28;20058;-67
2022/08/29 10:12:39;;;;;;;6.20;5.70;;;;;;;;;;10094033;28;20114;-67
2022/08/29 10:23:02;;;;;;;6.97;6.47;;;;;;;;;;10091269;28;20087;-67
2022/08/29 10:28:02;;;;;;;7.40;6.70;;;;;;;;;;10085701;28;20085;-67
2022/08/29 10:33:09;;;;;;;8.20;7.50;;;;;;;;;;10078566;28;20067;-68
2022/08/29 10:38:31;;;;;;;7.80;7.20;;;;;;;;;;10090520;28;20110;-67
2022/08/29 10:43:28;;;;;;;8.00;7.22;;;;;;;;;;10080362;28;20070;-68
2022/08/29 10:48:36;;;;;;;8.18;7.57;;;;;;;;;;10096537;28;20055;-68
2022/08/29 10:53:39;;;;;;;7.90;7.30;;;;;;;;;;10088859;28;20042;-67
2022/08/29 10:58:38;;;;;;;7.80;7.30;;;;;;;;;;10088551;28;20134;-67
2022/08/29 11:03:40;;;;;;;8.98;6.78;;;;;;;;;;10104024;28;20129;-67
2022/08/29 11:08:37;;;;;;;;;;;;;;;;;;10097020;28;20050;-68
2022/08/29 11:13:41;;;;;;;6.55;6.05;;;;;;;;;;10094702;28;19969;-67
2022/08/29 11:18:42;;;;;;;6.80;6.20;;;;;;;;;;10100021;28;20138;-67
2022/08/29 11:23:40;;;;;;;7.38;6.78;;;;;;;;;;10101697;28;20512;-68
2022/08/29 11:28:56;;;;;;;7.07;6.57;;;;;;;;;;10098317;28;20596;-68
2022/08/29 11:33:58;;;;;;;7.78;7.25;;;;;;;;;;10099576;28;20043;-67
2022/08/29 11:39:13;;;;;;;7.43;6.93;;;;;;;;;;10104569;28;20097;-67
2022/08/29 11:44:12;;;;;;;8.88;8.02;;;;;;;;;;10107187;28;20090;-67
2022/08/29 11:49:28;;;;;;;7.88;7.20;;;;;;;;;;10111249;28;20484;-67
2022/08/29 11:54:24;;;;;;;8.43;7.50;;;;;;;;;;10108168;28;20690;-67
2022/08/29 11:59:40;;;;;;;7.60;6.93;;;;;;;;;;10103649;28;20105;-67
2022/08/29 12:04:51;;;;;;;10.90;8.07;;;;;;;;;;10098516;28;20115;-67
2022/08/29 12:09:52;;;;;;;10.00;9.10;;;;;;;;;;10098140;28;20066;-67
2022/08/29 12:14:49;;;;;;;7.78;7.25;;;;;;;;;;10090083;28;20126;-67
2022/08/29 12:19:51;;;;;;;7.50;6.90;;;;;;;;;;10093129;28;20043;-67
2022/08/29 12:24:47;;;;;;;8.40;7.70;;;;;;;;;;10096974;28;20062;-68
2022/08/29 12:29:53;;;;;;;7.90;7.30;;;;;;;;;;10106027;28;20047;-68
2022/08/29 12:35:01;;;;;;;10.00;8.05;;;;;;;;;;10109473;28;20141;-67
2022/08/29 12:40:07;;;;;;;8.10;7.40;;;;;;;;;;10102983;28;20047;-68
2022/08/29 12:45:25;;;;;;;7.90;7.20;;;;;;;;;;10102908;28;20047;-68
2022/08/29 12:50:24;;;;;;;9.10;7.30;;;;;;;;;;10102757;28;20109;-69
2022/08/29 12:55:22;;;;;;;7.30;6.70;;;;;;;;;;10071641;28;20070;-70
2022/08/29 13:00:26;;;;;;;7.22;6.57;;;;;;;;;;10108108;28;20416;-69
2022/08/29 13:05:23;;;;;;;7.45;6.75;;;;;;;;;;10095889;28;20105;-69
2022/08/29 13:10:24;;;;;;;7.32;6.60;;;;;;;;;;10108338;28;20043;-69
2022/08/29 13:15:25;;;;;;;6.50;6.00;;;;;;;;;;10104863;28;20049;-67
2022/08/29 13:20:36;;;;;;;6.53;5.90;;;;;;;;;;10109524;28;20053;-69
2022/08/29 13:25:33;;;;;;;11.00;6.70;;;;;;;;;;10098163;28;20125;-70
2022/08/29 13:30:29;;;;;;;6.75;6.15;;;;;;;;;;10100776;28;20450;-69
2022/08/29 13:35:29;;;;;;;7.60;7.00;;;;;;;;;;10106798;28;20062;-69
2022/08/29 13:40:40;;;;;;;7.88;7.28;;;;;;;;;;10114117;28;20046;-69
2022/08/29 13:45:37;;;;;;;7.63;6.95;;;;;;;;;;10103729;28;20046;-69
2022/08/29 13:50:33;;;;;;;8.02;7.35;;;;;;;;;;10102969;28;20051;-69
2022/08/29 13:55:30;;;;;;;8.60;7.65;;;;;;;;;;10096579;28;20039;-67
2022/08/29 14:00:27;;;;;;;8.35;7.75;;;;;;;;;;10103975;28;20073;-69
2022/08/29 14:05:30;;;;;;;8.80;8.00;;;;;;;;;;10100910;28;20093;-69
2022/08/29 14:10:27;;;;;;;8.43;7.68;;;;;;;;;;10097392;28;20051;-66
2022/08/29 14:15:23;;;;;;;8.30;7.60;;;;;;;;;;10102150;28;20097;-69
2022/08/29 14:20:20;;;;;;;8.70;8.10;;;;;;;;;;10093787;28;20043;-67
2022/08/29 14:25:17;;;;;;;8.32;7.68;;;;;;;;;;10099917;28;20101;-67
2022/08/29 14:30:15;;;;;;;8.50;7.80;;;;;;;;;;10096079;28;20693;-68
2022/08/29 14:35:11;;;;;;;8.27;7.68;;;;;;;;;;10097655;28;20054;-68
2022/08/29 14:40:22;;;;;;;8.27;7.53;;;;;;;;;;10107477;28;20125;-67
2022/08/29 14:45:20;;;;;;;9.25;8.27;;;;;;;;;;10101343;28;20106;-68
2022/08/29 14:50:17;;;;;;;8.75;8.15;;;;;;;;;;10113047;28;20160;-67
2022/08/29 14:55:14;;;;;;;9.10;7.97;;;;;;;;;;10117070;28;20074;-68
2022/08/29 15:00:13;;;;;;;7.95;7.32;;;;;;;;;;10116236;28;20077;-67
2022/08/29 15:05:10;;;;;;;8.30;7.68;;;;;;;;;;10103521;28;20042;-67
2022/08/29 15:10:07;;;;;;;8.50;7.85;;;;;;;;;;10105090;28;20105;-68
2022/08/29 15:15:04;;;;;;;8.20;7.50;;;;;;;;;;10105276;28;20089;-68
2022/08/29 15:20:01;;;;;;;7.85;7.28;;;;;;;;;;10105593;28;20408;-68
2022/08/29 15:25:17;;;;;;;8.07;7.47;;;;;;;;;;10096828;28;20051;-67
2022/08/29 15:30:18;;;;;;;9.38;7.63;;;;;;;;;;10115071;28;20082;-68
2022/08/29 15:35:15;;;;;;;8.33;7.33;;;;;;;;;;10108275;28;20062;-67
2022/08/29 15:40:12;;;;;;;8.13;7.43;;;;;;;;;;10094681;28;20047;-68
2022/08/29 15:45:09;;;;;;;8.10;7.50;;;;;;;;;;10096204;28;20047;-68
2022/08/29 15:50:07;;;;;;;7.93;7.22;;;;;;;;;;10095748;28;20059;-67
2022/08/29 15:55:04;;;;;;;8.07;7.47;;;;;;;;;;10098110;28;20255;-67
2022/08/29 16:00:01;;;;;;;8.35;7.60;;;;;;;;;;10093442;28;20501;-67
2022/08/29 16:04:58;;;;;;;7.47;6.85;;;;;;;;;;10100945;28;20047;-68
2022/08/29 16:09:56;;;;;;;7.82;7.13;;;;;;;;;;10095704;28;20051;-67
2022/08/29 16:14:52;;;;;;;7.50;6.90;;;;;;;;;;10095413;28;20074;-68
2022/08/29 16:20:00;;;;;;;7.55;6.88;;;;;;;;;;10102048;28;20071;-67
2022/08/29 16:24:57;;;;;;;7.40;6.60;;;;;;;;;;10097617;28;20047;-67
2022/08/29 16:29:53;;;;;;;7.18;6.68;;;;;;;;;;10095551;28;20074;-67
2022/08/29 16:34:50;;;;;;;6.82;6.22;;;;;;;;;;10097741;28;20142;-67
2022/08/29 16:39:46;;;;;;;7.30;6.70;;;;;;;;;;10093286;28;20456;-67
2022/08/29 16:44:42;;;;;;;6.90;6.32;;;;;;;;;;10096917;28;20085;-67
2022/08/29 16:49:39;;;;;;;7.82;7.10;;;;;;;;;;10100472;28;20077;-67
2022/08/29 16:54:35;;;;;;;7.45;6.85;;;;;;;;;;10113630;28;20623;-67
2022/08/29 16:59:34;;;;;;;6.93;6.38;;;;;;;;;;10092911;28;20038;-67
2022/08/29 17:04:32;;;;;;;7.88;7.28;;;;;;;;;;10085630;28;20453;-68
2022/08/29 17:19:22;;;;;;;8.07;7.45;;;;;;;;;;10086588;28;20106;-67
2022/08/29 17:24:19;;;;;;;8.45;7.78;;;;;;;;;;10094236;28;20122;-67
2022/08/29 17:29:16;;;;;;;12.82;8.48;;;;;;;;;;10090354;28;20059;-68
2022/08/29 17:34:13;;;;;;;7.38;6.78;;;;;;;;;;10080344;28;20086;-68
2022/08/29 17:39:09;;;;;;;7.55;6.95;;;;;;;;;;10088325;28;20066;-67
2022/08/29 17:44:06;;;;;;;6.93;6.32;;;;;;;;;;10098937;28;20045;-68
2022/08/29 17:49:03;;;;;;;8.18;7.35;;;;;;;;;;10090700;28;20074;-67
2022/08/29 17:54:07;;;;;;;8.35;6.88;;;;;;;;;;10095423;28;20074;-68
2022/08/29 17:59:04;;;;;;;7.05;6.38;;;;;;;;;;10098198;28;20098;-67
2022/08/29 18:04:02;;;;;;;8.00;5.72;;;;;;;;;;10093343;28;20050;-68
2022/08/29 18:08:58;;;;;;;6.13;5.70;;;;;;;;;;10085812;28;20147;-68
2022/08/29 18:13:55;;;;;;;8.50;5.60;;;;;;;;;;10105682;28;20047;-68
2022/08/29 18:18:51;;;;;;;5.97;5.45;;;;;;;;;;10094385;28;20075;-67
2022/08/29 18:23:47;;;;;;;5.88;5.22;;;;;;;;;;10113505;28;20074;-67
2022/08/29 18:28:45;;;;;;;5.63;5.13;;;;;;;;;;10105127;28;20078;-68
2022/08/29 18:33:41;;;;;;;6.47;5.40;;;;;;;;;;10115792;28;20061;-69
2022/08/29 18:38:55;;;;;;;6.15;5.28;;;;;;;;;;10113748;28;20090;-68
2022/08/29 18:43:51;;;;;;;6.45;5.95;;;;;;;;;;10110833;28;20047;-68
2022/08/29 18:48:47;;;;;;;6.97;6.38;;;;;;;;;;10112625;28;20085;-68
2022/08/29 18:53:44;;;;;;;8.73;5.18;;;;;;;;;;10110176;28;20117;-68
2022/08/29 18:58:43;;;;;;;6.45;5.50;;;;;;;;;;10111887;28;20043;-68
2022/08/29 19:03:39;;;;;;;5.25;4.75;;;;;;;;;;10103626;28;20047;-68
2022/08/29 19:08:37;;;;;;;7.30;5.40;;;;;;;;;;10111142;28;20073;-68
2022/08/29 19:13:34;;;;;;;5.72;5.22;;;;;;;;;;10112993;28;20043;-68
2022/08/29 19:18:30;;;;;;;5.85;5.22;;;;;;;;;;10105472;28;20600;-68
2022/08/29 19:23:27;;;;;;;5.88;5.22;;;;;;;;;;10115660;28;20093;-68
2022/08/29 19:28:24;;;;;;;10.25;5.82;;;;;;;;;;10106812;28;20096;-67
2022/08/29 19:33:20;;;;;;;6.20;5.03;;;;;;;;;;10100398;28;20532;-68
2022/08/29 19:38:18;;;;;;;5.75;5.15;;;;;;;;;;10101013;28;20078;-67
2022/08/29 19:43:15;;;;;;;5.88;5.03;;;;;;;;;;10090528;28;20138;-67
2022/08/29 19:48:12;;;;;;;8.25;4.85;;;;;;;;;;10099455;28;20055;-66
2022/08/29 19:53:10;;;;;;;5.75;4.68;;;;;;;;;;10096085;28;20051;-69
2022/08/29 19:58:07;;;;;;;5.97;4.85;;;;;;;;;;10104012;28;20669;-64
2022/08/29 20:03:04;;;;;;;5.03;4.50;;;;;;;;;;10100366;28;20082;-66
2022/08/29 20:08:01;;;;;;;5.55;5.05;;;;;;;;;;10086180;28;20077;-66
2022/08/29 20:12:58;;;;;;;5.82;5.10;;;;;;;;;;10093667;28;20612;-66
2022/08/29 20:17:55;;;;;;;5.03;4.53;;;;;;;;;;10086465;28;20055;-64
2022/08/29 20:22:52;;;;;;;4.78;4.20;;;;;;;;;;10095027;28;20125;-65
2022/08/29 20:27:49;;;;;;;5.32;4.05;;;;;;;;;;10094740;28;20101;-65
2022/08/29 20:32:45;;;;;;;4.63;4.07;;;;;;;;;;10094950;28;20051;-65
2022/08/29 20:37:44;;;;;;;5.30;4.00;;;;;;;;;;10105787;28;20505;-65
2022/08/29 20:42:42;;;;;;;8.43;4.40;;;;;;;;;;10104443;28;20055;-66
2022/08/29 20:47:38;;;;;;;5.55;3.83;;;;;;;;;;10105284;28;20077;-66
2022/08/29 20:52:35;;;;;;;5.03;4.15;;;;;;;;;;10098936;28;20134;-66
2022/08/29 20:57:32;;;;;;;5.53;4.35;;;;;;;;;;10111196;28;20078;-66
2022/08/29 21:07:44;;;;;;;4.30;3.88;;;;;;;;;;10098076;28;20766;-67
2022/08/29 21:12:42;;;;;;;5.32;4.03;;;;;;;;;;10108816;28;21116;-66
2022/08/29 21:17:38;;;;;;;4.95;3.97;;;;;;;;;;10096642;28;20100;-66
2022/08/29 21:22:35;;;;;;;4.35;3.67;;;;;;;;;;10107972;28;20073;-66
2022/08/29 21:27:31;;;;;;;4.60;3.75;;;;;;;;;;10102923;28;20051;-66
2022/08/29 21:32:27;;;;;;;4.72;3.70;;;;;;;;;;10102300;28;20051;-65
2022/08/29 21:37:24;;;;;;;3.88;3.20;;;;;;;;;;10103119;28;20066;-65
2022/08/29 21:42:20;;;;;;;3.80;3.30;;;;;;;;;;10101847;28;20093;-65
2022/08/29 21:47:16;;;;;;;5.18;3.30;;;;;;;;;;10104588;28;20129;-66
2022/08/29 21:52:13;;;;;;;4.38;3.63;;;;;;;;;;10096049;28;20047;-65
2022/08/29 22:02:26;;;;;;;4.13;3.70;;;;;;;;;;10099569;28;20492;-65
2022/08/29 22:07:22;;;;;;;4.65;3.88;;;;;;;;;;10103490;28;20058;-65
2022/08/29 22:12:19;;;;;;;4.28;3.60;;;;;;;;;;10104961;28;20130;-65
2022/08/29 22:17:15;;;;;;;3.47;3.08;;;;;;;;;;10093871;28;20050;-65
2022/08/29 22:22:11;;;;;;;7.05;3.85;;;;;;;;;;10105605;28;20050;-65
2022/08/29 22:27:07;;;;;;;4.78;3.33;;;;;;;;;;10094880;28;20497;-64
2022/08/29 22:32:04;;;;;;;5.40;3.40;;;;;;;;;;10106996;28;20507;-64
2022/08/29 22:37:00;;;;;;;4.18;3.25;;;;;;;;;;10092259;28;20078;-65
2022/08/29 22:41:57;;;;;;;4.03;3.10;;;;;;;;;;10092083;28;20127;-65
2022/08/29 22:46:53;;;;;;;3.50;2.80;;;;;;;;;;10104744;28;20151;-65
2022/08/29 22:51:50;;;;;;;5.80;3.28;;;;;;;;;;10101275;28;20042;-65
2022/08/29 22:56:47;;;;;;;5.32;3.35;;;;;;;;;;10094561;28;20565;-65
2022/08/29 23:01:43;;;;;;;3.72;2.80;;;;;;;;;;10102021;28;20042;-65
2022/08/29 23:06:39;;;;;;;3.47;2.60;;;;;;;;;;10106286;28;20513;-65
2022/08/29 23:11:36;;;;;;;4.50;3.40;;;;;;;;;;10110199;28;20043;-65
2022/08/29 23:16:32;;;;;;;3.95;2.90;;;;;;;;;;10111263;28;20505;-65
2022/08/29 23:21:29;;;;;;;6.55;3.30;;;;;;;;;;10093924;28;20051;-65
2022/08/29 23:26:26;;;;;;;4.63;3.20;;;;;;;;;;10106107;28;20042;-66
2022/08/29 23:31:23;;;;;;;4.55;3.50;;;;;;;;;;10110647;28;20161;-65
2022/08/29 23:36:20;;;;;;;4.85;3.30;;;;;;;;;;10101246;28;20416;-65
2022/08/29 23:41:16;;;;;;;5.00;3.42;;;;;;;;;;10110383;28;20066;-65
2022/08/29 23:46:13;;;;;;;5.43;3.38;;;;;;;;;;10105453;28;20651;-65
2022/08/29 23:51:10;;;;;;;7.93;4.13;;;;;;;;;;10101905;28;20070;-65
2022/08/29 23:56:08;;;;;;;4.50;3.45;;;;;;;;;;10101593;28;20074;-65
